Strona główna
METAR-TAF:

METAR-TAF

Lotnisko :

Port lotniczy Bagdad

Bagdad, Irak

Szerokość geograficzna: 33-15-45N, Długość geograficzna: 44-14-04E, wysokość: 35 m

Aktualna obserwacja pogody

Raport powstał 56 minut temu, godzina 08:00 UTC
Wiatr 5 kt od wschodnio-północny wschód, zmienny między północny wschód i wschodnio-południowy wschód
Temperatura 41°C
Wilgotność 12%
Ciśnienie 1008 hPa
Widzialność 10 km lub więcej
Brak chmur poniżej 1500 m i brak chmur cumulonimbus

METAR: ORBI 280800Z 07005KT 040V110 CAVOK 41/06 Q1008 NOSIG

czas: 11:56 (08:56 UTC)

Prognoza

Raport powstał 4 godziny i 56 minut temu, godzina 04:00 UTC
Prognoza ważna od 28 godzina 06 UTC do 29 godzina 06 UTC
Wiatr 3 kt z kierunków zmiennych
Widzialność: 8000 m
Stopniowe zmiany
od 28 godzina 10 UTC do 28 godzina 12 UTC
Wiatr 6 kt od południowy wschód

TAF: ORBI 280400Z 2806/2906 VRB03KT 8000 NSC BECMG 2810/2812 14006KT

Obserwacja i prognoza pogody dla ponad 4000 lotnisk (raport METAR i TAF).

Dostępne stacje oznaczono żółtymi i czerwonymi punktami na mapie.

Najedź kursorem aby zobaczyć nazwę stacji.

Kliknij aby zobaczyć obserwacje i prognozy pogody.

Aby zmienić mapę: kliknij na zielony przycisk z czarnym krzyżykiem, aby powiększyć; na zielony przycisk z myślnikiem, aby pomniejszyć; na zielone strzałki, aby przejść do map sąsiednich.


METAR-TAF: